createdAt,value
2023-04-08T09:16:12.657Z,25.64
2023-04-08T09:18:51.527Z,25.80
2023-04-08T09:21:27.141Z,26.10
2023-04-08T09:23:59.634Z,26.15
2023-04-08T09:26:39.219Z,25.93
2023-04-08T09:29:24.156Z,25.92
2023-04-08T09:43:40.751Z,25.73
2023-04-08T09:46:14.838Z,25.29
2023-04-08T09:49:27.454Z,24.90
2023-04-08T09:52:19.333Z,24.40
2023-04-08T09:54:59.669Z,24.17
2023-04-08T09:57:47.047Z,24.00
2023-04-08T10:00:17.735Z,23.68
2023-04-08T10:03:15.457Z,23.18
2023-04-08T10:05:46.493Z,22.91
2023-04-08T10:08:17.584Z,22.67
2023-04-08T10:10:47.956Z,22.57
2023-04-08T10:13:23.609Z,22.57
2023-04-08T10:16:24.845Z,22.46
2023-04-08T10:18:58.917Z,22.12
2023-04-08T10:21:40.342Z,21.64
2023-04-08T10:24:12.039Z,21.26
2023-04-08T10:26:45.456Z,21.09
2023-04-08T10:29:39.462Z,20.86
2023-04-08T10:32:08.586Z,20.65
2023-04-08T10:34:37.567Z,20.47
2023-04-08T10:37:07.854Z,20.41
2023-04-08T10:39:40.159Z,20.39
2023-04-08T10:42:12.495Z,20.30
2023-04-08T10:44:44.952Z,20.03
2023-04-08T10:47:18.764Z,19.82
2023-04-08T10:49:48.777Z,19.70
2023-04-08T10:52:17.215Z,19.92
2023-04-08T10:54:48.824Z,20.22
2023-04-08T10:57:24.819Z,20.49
2023-04-08T10:59:54.168Z,21.00
2023-04-08T11:02:23.669Z,21.63
2023-04-08T11:04:54.866Z,22.07
2023-04-08T11:07:27.579Z,22.19
2023-04-08T11:09:57.273Z,22.33
2023-04-08T11:12:32.750Z,22.53
2023-04-08T11:15:08.099Z,22.46
2023-04-08T11:17:38.126Z,22.14
2023-04-08T11:20:13.741Z,21.68
2023-04-08T11:22:42.879Z,21.38
2023-04-08T11:25:12.098Z,21.14
2023-04-08T11:27:44.432Z,20.87
2023-04-08T11:30:14.008Z,20.64
2023-04-08T11:32:45.406Z,20.59
2023-04-08T11:35:13.863Z,21.00
2023-04-08T11:37:43.471Z,21.81
2023-04-08T11:40:20.929Z,22.61
2023-04-08T11:42:53.601Z,23.07
2023-04-08T11:45:23.546Z,23.49
2023-04-08T11:47:53.241Z,23.92
2023-04-08T11:50:31.211Z,24.15
2023-04-08T11:53:01.130Z,24.29
2023-04-08T11:55:30.514Z,24.42
2023-04-08T11:58:06.416Z,24.51
2023-04-08T12:00:37.695Z,24.37
2023-04-08T12:03:12.939Z,24.02
2023-04-08T12:05:45.869Z,23.49
2023-04-08T12:08:14.458Z,22.97
2023-04-08T12:10:44.978Z,22.23
2023-04-08T12:13:17.972Z,21.55
2023-04-08T12:15:48.386Z,21.13
2023-04-08T12:18:17.262Z,20.87
2023-04-08T12:20:46.498Z,20.74
2023-04-08T12:23:20.057Z,20.67
2023-04-08T12:25:49.690Z,20.64
2023-04-08T12:28:21.456Z,20.62
2023-04-08T12:30:51.192Z,20.42
2023-04-08T12:33:22.419Z,20.04
2023-04-08T12:35:52.666Z,19.55
2023-04-08T12:38:21.776Z,19.18
2023-04-08T12:40:50.339Z,18.99
2023-04-08T12:43:24.054Z,18.91
2023-04-08T12:45:55.087Z,18.89
2023-04-08T12:48:26.822Z,18.99
2023-04-08T12:50:58.989Z,19.07
2023-04-08T12:53:28.590Z,19.05
2023-04-08T12:55:59.545Z,18.97
2023-04-08T12:58:37.161Z,18.78
2023-04-08T13:01:07.854Z,18.63
2023-04-08T13:03:46.957Z,18.44
2023-04-08T13:06:18.226Z,18.13
2023-04-08T13:08:55.627Z,17.71
2023-04-08T13:11:29.491Z,17.10
2023-04-08T13:13:59.809Z,16.31
2023-04-08T13:16:31.903Z,15.61
2023-04-08T13:19:05.747Z,15.14
2023-04-08T13:21:36.094Z,14.76
2023-04-08T13:24:05.431Z,14.39
2023-04-08T13:26:34.503Z,14.08
2023-04-08T13:29:05.051Z,13.88
2023-04-08T13:31:34.707Z,13.82
2023-04-08T13:34:07.320Z,13.75
2023-04-08T13:36:43.220Z,13.68
2023-04-08T13:39:13.917Z,13.55
2023-04-08T13:41:44.072Z,13.44
2023-04-08T13:44:12.747Z,13.28
2023-04-08T13:46:43.956Z,13.14
2023-04-08T13:49:14.076Z,13.09
2023-04-08T13:51:42.847Z,13.07
2023-04-08T13:54:17.980Z,13.08
2023-04-08T13:56:47.075Z,13.11
2023-04-08T13:59:16.925Z,13.20
2023-04-08T14:01:45.447Z,13.32
2023-04-08T14:04:14.796Z,13.41
2023-04-08T14:06:43.988Z,13.46
2023-04-08T14:09:13.387Z,13.53
2023-04-08T14:11:42.760Z,13.61
2023-04-08T14:14:11.484Z,13.69
2023-04-08T14:16:39.945Z,13.75
2023-04-08T14:19:08.551Z,13.82
2023-04-08T14:21:38.363Z,13.88
2023-04-08T14:24:07.430Z,13.92
2023-04-08T14:26:39.313Z,13.96
2023-04-08T14:29:09.902Z,14.02
2023-04-08T14:31:41.155Z,14.09
2023-04-08T14:34:09.882Z,14.18
2023-04-08T14:36:40.403Z,14.26
2023-04-08T14:39:15.051Z,14.33
2023-04-08T14:42:03.269Z,14.39
2023-04-08T14:44:36.505Z,14.43
2023-04-08T14:47:07.536Z,14.49
2023-04-08T14:49:36.087Z,14.52
2023-04-08T14:52:08.055Z,14.56
2023-04-08T14:54:37.764Z,14.58
2023-04-08T14:57:09.354Z,14.60
2023-04-08T14:59:44.459Z,14.63
2023-04-08T15:02:13.639Z,14.70
2023-04-08T15:04:44.952Z,14.74
2023-04-08T15:07:14.952Z,14.78
2023-04-08T15:09:46.405Z,14.80
2023-04-08T15:12:16.143Z,14.79
2023-04-08T15:14:46.858Z,14.77
2023-04-08T15:17:17.386Z,14.70
2023-04-08T15:19:51.153Z,14.54
2023-04-08T15:22:21.865Z,14.39
2023-04-08T15:24:53.471Z,14.34
2023-04-08T15:27:27.480Z,14.31
2023-04-08T15:29:59.679Z,14.27
2023-04-08T15:32:29.685Z,14.18
2023-04-08T15:34:59.220Z,14.09
2023-04-08T15:37:32.961Z,13.98
2023-04-08T15:40:02.898Z,13.88
2023-04-08T15:42:31.746Z,13.81
2023-04-08T15:45:02.053Z,13.75
2023-04-08T15:47:38.188Z,13.71
2023-04-08T15:50:08.863Z,13.69
2023-04-08T15:52:38.055Z,13.69
2023-04-08T15:55:08.045Z,13.67
2023-04-08T15:57:37.774Z,13.65
2023-04-08T16:00:12.240Z,13.62
2023-04-08T16:02:42.655Z,13.58
2023-04-08T16:05:13.508Z,13.55
2023-04-08T16:07:44.080Z,13.51
2023-04-08T16:10:14.935Z,13.47
2023-04-08T16:12:43.385Z,13.43
2023-04-08T16:15:14.484Z,13.37
2023-04-08T16:17:43.457Z,13.33
2023-04-08T16:20:12.552Z,13.30
2023-04-08T16:22:50.640Z,13.30
2023-04-08T16:25:19.280Z,13.27
2023-04-08T16:27:48.846Z,13.24
2023-04-08T16:30:17.779Z,13.23
2023-04-08T16:32:47.822Z,13.25
2023-04-08T16:35:19.085Z,13.29
2023-04-08T16:37:51.357Z,13.31
2023-04-08T16:40:27.417Z,13.32
2023-04-08T16:42:56.928Z,13.33
2023-04-08T16:45:26.070Z,13.34
2023-04-08T16:47:56.737Z,13.34
2023-04-08T16:50:34.286Z,13.36
2023-04-08T16:53:04.721Z,13.34
2023-04-08T16:55:36.332Z,13.34
2023-04-08T16:58:06.365Z,13.34
2023-04-08T17:00:37.037Z,13.34
2023-04-08T17:03:12.663Z,13.32
2023-04-08T17:05:45.899Z,13.30
2023-04-08T17:08:24.334Z,13.29
2023-04-08T17:10:55.050Z,13.27
2023-04-08T17:13:26.057Z,13.26
2023-04-08T17:15:59.217Z,13.22
2023-04-08T17:18:30.066Z,13.18
2023-04-08T17:21:03.850Z,13.14
2023-04-08T17:23:39.363Z,13.09
2023-04-08T17:26:13.009Z,13.06
2023-04-08T17:28:43.621Z,13.01
2023-04-08T17:31:15.088Z,12.96
2023-04-08T17:33:52.259Z,12.89
2023-04-08T17:36:21.995Z,12.82
2023-04-08T17:38:51.270Z,12.76
2023-04-08T17:41:38.132Z,12.72
2023-04-08T17:44:11.884Z,12.71
2023-04-08T17:46:46.558Z,12.70
2023-04-08T17:49:15.359Z,12.72
2023-04-08T17:51:47.243Z,12.72
2023-04-08T17:54:18.212Z,12.69
2023-04-08T17:56:49.057Z,12.65
2023-04-08T17:59:18.346Z,12.65
2023-04-08T18:01:47.963Z,12.65
2023-04-08T18:04:22.123Z,12.61
2023-04-08T18:06:53.204Z,12.59
2023-04-08T18:09:36.335Z,12.57
2023-04-08T18:12:09.928Z,12.56
2023-04-08T18:14:39.370Z,12.54
2023-04-08T18:17:10.489Z,12.52
2023-04-08T18:19:44.081Z,12.50
2023-04-08T18:22:12.795Z,12.49
2023-04-08T18:24:42.957Z,12.47
2023-04-08T18:27:11.682Z,12.47
2023-04-08T18:29:41.803Z,12.44
2023-04-08T18:32:11.014Z,12.40
2023-04-08T18:34:43.168Z,12.36
2023-04-08T18:37:13.390Z,12.32
2023-04-08T18:39:41.954Z,12.29
2023-04-08T18:42:12.084Z,12.27
2023-04-08T18:44:41.738Z,12.25
2023-04-08T18:47:11.386Z,12.23
2023-04-08T18:49:41.096Z,12.20
2023-04-08T18:52:09.793Z,12.19
2023-04-08T18:54:49.104Z,12.17
2023-04-08T18:57:22.961Z,12.14
2023-04-08T18:59:51.771Z,12.12
2023-04-08T19:02:20.890Z,12.09
2023-04-08T19:04:50.531Z,12.09
2023-04-08T19:07:22.469Z,12.08
2023-04-08T19:10:01.256Z,12.07
2023-04-08T19:12:31.974Z,12.07
2023-04-08T19:15:00.736Z,12.05
2023-04-08T19:17:32.357Z,12.05
2023-04-08T19:20:08.736Z,12.03
2023-04-08T19:22:39.783Z,12.00
2023-04-08T19:25:08.981Z,11.98
2023-04-08T19:27:40.653Z,11.97
2023-04-08T19:30:10.481Z,11.96
2023-04-08T19:32:44.491Z,11.98
2023-04-08T19:35:15.695Z,11.98
2023-04-08T19:37:49.506Z,11.98
2023-04-08T19:40:19.659Z,11.97
2023-04-08T19:42:50.173Z,11.96
2023-04-08T19:45:19.808Z,11.95
2023-04-08T19:47:50.102Z,11.98
2023-04-08T19:50:22.504Z,11.99
2023-04-08T19:52:51.369Z,11.99
2023-04-08T19:55:25.754Z,11.99
2023-04-08T19:57:56.215Z,12.01
2023-04-08T20:00:29.737Z,12.03
2023-04-08T20:03:01.988Z,12.03
2023-04-08T20:05:31.480Z,12.04
2023-04-08T20:08:03.160Z,12.05
2023-04-08T20:10:36.500Z,12.04
2023-04-08T20:13:04.956Z,12.01
2023-04-08T20:15:33.482Z,12.00
2023-04-08T20:18:05.156Z,11.99
2023-04-08T20:20:35.681Z,11.97
2023-04-08T20:23:05.805Z,11.92
2023-04-08T20:25:35.931Z,11.87
2023-04-08T20:28:05.016Z,11.83
2023-04-08T20:30:37.181Z,11.84
2023-04-08T20:33:07.004Z,11.85
2023-04-08T20:35:36.150Z,11.86
2023-04-08T20:38:06.609Z,11.87
2023-04-08T20:40:54.711Z,11.87
2023-04-08T20:43:27.348Z,11.83
2023-04-08T20:46:01.350Z,11.82
2023-04-08T20:48:36.701Z,11.78
2023-04-08T20:51:06.918Z,11.76
2023-04-08T20:53:41.597Z,11.72
2023-04-08T20:56:11.520Z,11.70
2023-04-08T20:58:43.921Z,11.66
2023-04-08T21:01:14.429Z,11.59
2023-04-08T21:03:43.729Z,11.57
2023-04-08T21:06:20.623Z,11.54
2023-04-08T21:08:50.169Z,11.54
2023-04-08T21:11:19.530Z,11.55
2023-04-08T21:13:49.620Z,11.55
2023-04-08T21:16:19.857Z,11.53
2023-04-08T21:18:48.456Z,11.49
2023-04-08T21:21:18.556Z,11.46
2023-04-08T21:23:47.310Z,11.43
2023-04-08T21:26:15.724Z,11.42
2023-04-08T21:28:47.861Z,11.42
2023-04-08T21:31:19.627Z,11.43
2023-04-08T21:33:51.308Z,11.43
2023-04-08T21:36:22.508Z,11.42
2023-04-08T21:38:52.407Z,11.41
2023-04-08T21:41:25.228Z,11.39
2023-04-08T21:43:53.932Z,11.37
2023-04-08T21:46:24.612Z,11.35
2023-04-08T21:48:54.269Z,11.31
2023-04-08T21:51:23.370Z,11.28
2023-04-08T21:53:52.703Z,11.25
2023-04-08T21:56:22.369Z,11.22
2023-04-08T21:58:51.856Z,11.19
2023-04-08T22:01:22.819Z,11.17
2023-04-08T22:03:54.246Z,11.15
2023-04-08T22:06:31.523Z,11.10
2023-04-08T22:09:02.049Z,11.07
2023-04-08T22:11:34.848Z,11.04
2023-04-08T22:14:03.571Z,11.01
2023-04-08T22:16:34.141Z,10.99
2023-04-08T22:19:02.850Z,10.94
2023-04-08T22:21:34.486Z,10.90
2023-04-08T22:24:06.614Z,10.86
2023-04-08T22:26:34.975Z,10.80
2023-04-08T22:29:07.908Z,10.76
2023-04-08T22:31:37.806Z,10.73
2023-04-08T22:34:07.571Z,10.69
2023-04-08T22:36:37.327Z,10.66
2023-04-08T22:39:06.662Z,10.63
2023-04-08T22:41:35.804Z,10.59
2023-04-08T22:44:04.856Z,10.55
2023-04-08T22:46:36.964Z,10.51
2023-04-08T22:49:06.498Z,10.48
2023-04-08T22:51:37.257Z,10.44
2023-04-08T22:54:06.875Z,10.40
2023-04-08T22:56:36.280Z,10.35
2023-04-08T22:59:05.580Z,10.31
2023-04-08T23:01:34.382Z,10.27
2023-04-08T23:04:05.719Z,10.22
2023-04-08T23:06:38.570Z,10.16
2023-04-08T23:09:09.978Z,10.09
2023-04-08T23:11:38.675Z,10.06
2023-04-08T23:14:14.448Z,10.00
2023-04-08T23:16:46.898Z,9.95
2023-04-08T23:19:17.399Z,9.91
2023-04-08T23:21:46.584Z,9.88
2023-04-08T23:24:16.263Z,9.86
2023-04-08T23:26:44.988Z,9.83
2023-04-08T23:29:15.935Z,9.79
2023-04-08T23:31:45.206Z,9.75
2023-04-08T23:34:14.073Z,9.72
2023-04-08T23:36:46.932Z,9.68
2023-04-08T23:39:16.877Z,9.66
2023-04-08T23:41:45.354Z,9.63
2023-04-08T23:44:14.371Z,9.61
2023-04-08T23:46:46.238Z,9.56
2023-04-08T23:49:16.125Z,9.51
2023-04-08T23:51:47.871Z,9.47
2023-04-08T23:54:20.531Z,9.45
2023-04-08T23:56:56.276Z,9.44
2023-04-08T23:59:29.103Z,9.42
